Time;durP1;ratioP1;P1;durP2;ratioP2;P2;SDS_P1;SDS_P2;PMS_P1;PMS_P2;Temp;Humidity;BMP_temperature;BMP_pressure;BME280_temperature;BME280_humidity;BME280_pressure;Samples;Min_cycle;Max_cycle;Signal;HPM_P1;HPM_P2
2023/11/25 00:01:47;;;;;;;38.53;22.33;;;;;;;8.15;100.00;97885.72;5051392;28;20029;-81
2023/11/25 00:04:12;;;;;;;45.20;24.08;;;;;;;8.29;100.00;97886.09;5051398;28;20044;-82
2023/11/25 00:06:38;;;;;;;52.25;24.63;;;;;;;8.09;100.00;97860.22;5048684;28;20033;-82
2023/11/25 00:09:03;;;;;;;55.67;26.65;;;;;;;7.92;100.00;97871.00;5054300;28;20097;-81
2023/11/25 00:11:29;;;;;;;56.40;26.27;;;;;;;8.15;100.00;97893.69;5068936;28;20040;-84
2023/11/25 00:13:54;;;;;;;78.28;26.88;;;;;;;7.55;100.00;97867.25;5070064;28;20025;-81
2023/11/25 00:16:19;;;;;;;49.38;24.83;;;;;;;7.73;100.00;97894.47;5071120;28;20102;-81
2023/11/25 00:18:45;;;;;;;62.88;26.88;;;;;;;7.91;100.00;97898.59;5061375;28;20035;-81
2023/11/25 00:21:11;;;;;;;65.93;39.38;;;;;;;7.93;100.00;97867.28;5068099;28;20066;-81
2023/11/25 00:23:36;;;;;;;59.03;37.20;;;;;;;8.01;100.00;97882.75;5069853;28;20031;-81
2023/11/25 00:26:03;;;;;;;42.95;24.98;;;;;;;7.92;100.00;97842.59;5069891;28;20185;-81
2023/11/25 00:28:29;;;;;;;62.38;47.45;;;;;;;8.00;100.00;97841.31;5061589;28;20023;-82
2023/11/25 00:30:54;;;;;;;48.35;25.00;;;;;;;7.86;100.00;97878.09;5055281;28;20048;-81
2023/11/25 00:33:20;;;;;;;41.60;22.67;;;;;;;7.83;100.00;97868.03;5049988;28;20170;-82
2023/11/25 00:35:45;;;;;;;39.30;22.25;;;;;;;7.90;100.00;97862.47;5049794;28;20044;-82
2023/11/25 00:38:11;;;;;;;39.92;23.23;;;;;;;7.97;100.00;97860.44;5049432;28;20029;-83
2023/11/25 00:40:36;;;;;;;40.67;22.98;;;;;;;8.09;100.00;97844.28;5051242;28;20060;-82
2023/11/25 00:43:02;;;;;;;39.95;22.90;;;;;;;8.26;100.00;97839.59;5051361;28;20051;-84
2023/11/25 00:45:27;;;;;;;40.80;22.55;;;;;;;7.80;100.00;97841.97;5051226;28;20082;-82
2023/11/25 00:47:53;;;;;;;43.15;23.73;;;;;;;7.82;100.00;97818.66;5049581;28;20466;-81
2023/11/25 00:50:19;;;;;;;45.15;23.17;;;;;;;8.14;100.00;97836.34;5059848;28;20044;-81
2023/11/25 00:52:45;;;;;;;42.38;23.65;;;;;;;8.19;100.00;97828.41;5051230;28;20131;-82
2023/11/25 00:55:10;;;;;;;52.10;33.58;;;;;;;8.19;100.00;97799.19;5049226;28;20051;-82
2023/11/25 00:57:36;;;;;;;64.90;44.75;;;;;;;8.33;100.00;97807.50;5049551;28;20032;-82
2023/11/25 01:00:04;;;;;;;44.20;24.00;;;;;;;8.13;100.00;97805.53;5053450;28;20035;-82
2023/11/25 01:02:30;;;;;;;45.42;24.45;;;;;;;7.82;100.00;97773.53;5049567;28;20020;-81
2023/11/25 01:04:56;;;;;;;40.65;23.77;;;;;;;7.73;100.00;97767.13;5049360;28;20089;-81
2023/11/25 01:07:21;;;;;;;50.47;24.60;;;;;;;7.61;100.00;97807.91;5050556;28;20025;-80
2023/11/25 01:09:47;;;;;;;45.92;25.02;;;;;;;7.75;100.00;97796.84;5059287;28;20033;-82
2023/11/25 01:12:12;;;;;;;58.83;27.92;;;;;;;7.88;100.00;97777.81;5055187;28;20028;-81
2023/11/25 01:14:38;;;;;;;56.90;31.30;;;;;;;7.95;100.00;97754.50;5050603;28;20033;-81
2023/11/25 01:17:03;;;;;;;48.60;26.55;;;;;;;7.91;100.00;97764.03;5048827;28;20020;-81
2023/11/25 01:19:29;;;;;;;60.10;26.60;;;;;;;8.12;100.00;97770.25;5050170;28;20037;-82
2023/11/25 01:21:55;;;;;;;54.60;25.77;;;;;;;7.91;100.00;97803.84;5053977;28;20466;-81
2023/11/25 01:24:20;;;;;;;67.38;28.73;;;;;;;7.90;100.00;97767.75;5051010;28;20039;-80
2023/11/25 01:26:46;;;;;;;55.60;28.25;;;;;;;7.98;100.00;97769.13;5049524;28;20033;-80
2023/11/25 01:29:11;;;;;;;57.83;29.80;;;;;;;7.92;100.00;97767.50;5050907;28;20401;-81
2023/11/25 01:31:36;;;;;;;63.65;28.98;;;;;;;7.90;100.00;97757.13;5050600;28;20052;-80
2023/11/25 01:34:02;;;;;;;67.15;28.42;;;;;;;7.77;100.00;97762.91;5050531;28;20455;-80
2023/11/25 01:36:27;;;;;;;73.57;29.88;;;;;;;8.01;100.00;97745.50;5049163;28;20383;-81
2023/11/25 01:38:54;;;;;;;75.65;30.65;;;;;;;8.01;100.00;97699.59;5050025;28;20826;-81
2023/11/25 01:41:19;;;;;;;83.80;31.88;;;;;;;8.15;100.00;97702.53;5068082;28;20033;-81
2023/11/25 01:43:45;;;;;;;78.88;33.47;;;;;;;7.98;100.00;97708.84;5060910;28;20087;-82
2023/11/25 01:46:13;;;;;;;91.25;32.75;;;;;;;7.75;100.00;97690.72;5060611;28;20414;-80
2023/11/25 01:48:39;;;;;;;100.43;34.60;;;;;;;7.70;100.00;97703.97;5060040;28;20028;-82
2023/11/25 01:51:05;;;;;;;88.70;33.45;;;;;;;7.93;100.00;97746.00;5071070;28;20044;-80
2023/11/25 01:53:33;;;;;;;129.63;36.60;;;;;;;8.21;100.00;97720.09;5059262;28;20025;-81
2023/11/25 01:56:01;;;;;;;159.00;39.60;;;;;;;8.38;100.00;97731.31;5058233;28;20045;-82
2023/11/25 01:58:27;;;;;;;116.70;36.80;;;;;;;7.98;100.00;97732.75;5059988;28;20024;-83
2023/11/25 02:00:52;;;;;;;178.88;41.63;;;;;;;7.85;100.00;97670.34;5060921;28;20037;-81
2023/11/25 02:03:18;;;;;;;110.03;37.58;;;;;;;8.06;100.00;97670.41;5058536;28;20057;-81
2023/11/25 02:05:44;;;;;;;111.57;38.58;;;;;;;8.03;100.00;97666.44;5052813;28;20497;-80
2023/11/25 02:08:11;;;;;;;132.05;37.00;;;;;;;7.92;100.00;97674.59;5052711;28;20028;-81
2023/11/25 02:10:37;;;;;;;121.22;36.33;;;;;;;7.78;100.00;97650.41;5054145;28;20028;-80
2023/11/25 02:13:04;;;;;;;79.32;33.88;;;;;;;7.82;100.00;97701.91;5059972;28;20097;-80
2023/11/25 02:15:30;;;;;;;92.35;33.38;;;;;;;7.61;100.00;97688.53;5053686;28;20036;-82
2023/11/25 02:17:56;;;;;;;83.10;32.55;;;;;;;7.94;100.00;97672.50;5052078;28;20025;-82
2023/11/25 02:20:31;;;;;;;74.55;32.50;;;;;;;7.96;100.00;97654.44;5053320;28;20123;-80
2023/11/25 02:22:57;;;;;;;71.07;32.22;;;;;;;8.16;100.00;97648.41;5058837;28;20497;-80
2023/11/25 02:25:23;;;;;;;97.90;33.42;;;;;;;8.19;100.00;97658.47;5051612;28;20028;-82
2023/11/25 02:27:49;;;;;;;76.32;32.10;;;;;;;8.16;100.00;97649.19;5050919;28;20044;-82
2023/11/25 02:30:15;;;;;;;69.88;31.90;;;;;;;8.25;100.00;97676.03;5049637;28;20468;-82
2023/11/25 02:32:41;;;;;;;71.35;31.98;;;;;;;8.24;100.00;97645.22;5054095;28;20356;-81
2023/11/25 02:35:07;;;;;;;64.82;32.40;;;;;;;8.36;100.00;97653.75;5049568;28;20032;-82
2023/11/25 02:37:32;;;;;;;60.22;31.25;;;;;;;8.50;100.00;97658.56;5049461;28;20119;-81
2023/11/25 02:39:58;;;;;;;62.47;30.23;;;;;;;8.01;100.00;97631.38;5051022;28;20099;-81
2023/11/25 02:42:23;;;;;;;56.05;29.33;;;;;;;7.91;100.00;97604.03;5060547;28;20036;-81
2023/11/25 02:44:49;;;;;;;61.08;30.73;;;;;;;7.95;100.00;97615.72;5050220;28;20587;-80
2023/11/25 02:47:14;;;;;;;59.75;31.83;;;;;;;7.97;100.00;97625.00;5048757;28;20417;-80
2023/11/25 02:49:41;;;;;;;57.95;31.63;;;;;;;8.10;100.00;97644.94;5050925;28;20692;-82
2023/11/25 02:52:07;;;;;;;54.70;27.98;;;;;;;8.06;100.00;97625.28;5058229;28;20041;-81
2023/11/25 02:54:33;;;;;;;56.53;29.52;;;;;;;8.07;100.00;97583.59;5049852;28;20533;-81
2023/11/25 02:56:59;;;;;;;55.88;29.80;;;;;;;7.92;100.00;97617.00;5049930;28;20041;-81
2023/11/25 02:59:24;;;;;;;62.78;29.23;;;;;;;7.90;100.00;97627.09;5048504;28;20090;-82
2023/11/25 03:01:53;;;;;;;65.07;30.67;;;;;;;7.77;100.00;97595.75;5056749;28;20068;-81
2023/11/25 03:04:32;;;;;;;;;;;;;;;7.96;100.00;97596.84;5050213;28;20033;-80
2023/11/25 03:07:02;;;;;;;57.85;30.60;;;;;;;7.56;100.00;97565.69;5048717;28;20274;-81
2023/11/25 03:09:28;;;;;;;63.55;30.35;;;;;;;7.89;100.00;97584.91;5049731;28;20029;-80
2023/11/25 03:11:53;;;;;;;57.20;28.58;;;;;;;7.81;100.00;97592.31;5052445;28;20059;-81
2023/11/25 03:14:19;;;;;;;58.00;29.98;;;;;;;7.81;100.00;97572.94;5048173;28;20025;-81
2023/11/25 03:16:46;;;;;;;56.15;29.20;;;;;;;7.84;100.00;97551.19;5049051;28;20567;-81
2023/11/25 03:19:13;;;;;;;60.67;33.22;;;;;;;8.12;100.00;97552.56;5049251;28;20060;-83
2023/11/25 03:21:39;;;;;;;55.28;28.40;;;;;;;8.25;100.00;97556.53;5060913;28;20025;-81
2023/11/25 03:24:07;;;;;;;60.20;29.92;;;;;;;8.03;100.00;97544.34;5048167;28;20044;-81
2023/11/25 03:26:33;;;;;;;53.85;27.95;;;;;;;8.14;100.00;97536.38;5048084;28;20478;-81
2023/11/25 03:28:58;;;;;;;50.10;28.02;;;;;;;7.67;100.00;97524.09;5048121;28;20025;-81
2023/11/25 03:31:23;;;;;;;51.65;27.77;;;;;;;7.84;100.00;97514.03;5052760;28;20020;-81
2023/11/25 03:33:50;;;;;;;53.80;27.65;;;;;;;7.99;100.00;97516.72;5055068;28;20025;-81
2023/11/25 03:36:16;;;;;;;50.88;26.00;;;;;;;7.88;100.00;97493.88;5049850;28;20039;-81
2023/11/25 03:38:41;;;;;;;49.15;28.05;;;;;;;8.27;100.00;97517.25;5047731;28;20029;-81
2023/11/25 03:41:08;;;;;;;49.83;27.40;;;;;;;7.91;100.00;97511.94;5050830;28;20095;-83
2023/11/25 03:43:34;;;;;;;48.75;26.52;;;;;;;8.24;100.00;97523.88;5055964;28;20204;-81
2023/11/25 03:46:00;;;;;;;53.50;27.25;;;;;;;8.02;100.00;97488.84;5051917;28;20468;-80
2023/11/25 03:48:26;;;;;;;52.00;27.10;;;;;;;7.90;100.00;97483.78;5051576;28;20597;-81
2023/11/25 03:50:51;;;;;;;50.92;27.10;;;;;;;8.14;100.00;97497.34;5052497;28;20053;-81
2023/11/25 03:53:18;;;;;;;52.80;28.02;;;;;;;8.32;100.00;97492.56;5056574;28;20033;-85
2023/11/25 03:55:44;;;;;;;54.58;27.15;;;;;;;7.97;100.00;97478.25;5051130;28;20036;-80
2023/11/25 03:58:10;;;;;;;50.70;27.30;;;;;;;7.87;100.00;97487.00;5051181;28;20021;-81
2023/11/25 04:00:36;;;;;;;50.92;26.92;;;;;;;8.13;100.00;97495.75;5050988;28;20051;-81
2023/11/25 04:03:02;;;;;;;51.80;27.60;;;;;;;8.08;100.00;97458.59;5063923;28;20029;-81
2023/11/25 04:05:27;;;;;;;52.80;26.65;;;;;;;7.54;100.00;97441.34;5052129;28;20116;-81
2023/11/25 04:07:53;;;;;;;46.53;24.95;;;;;;;7.77;100.00;97477.16;5051217;28;20060;-81
2023/11/25 04:10:19;;;;;;;87.75;52.65;;;;;;;7.93;100.00;97467.34;5051145;28;20114;-81
2023/11/25 04:12:45;;;;;;;60.88;34.47;;;;;;;7.60;100.00;97468.63;5054738;28;20025;-81
2023/11/25 04:15:12;;;;;;;55.50;30.23;;;;;;;7.61;100.00;97473.69;5052193;28;20040;-80
2023/11/25 04:17:39;;;;;;;62.30;31.23;;;;;;;7.73;100.00;97470.00;5050562;28;20020;-81
2023/11/25 04:20:13;;;;;;;54.85;28.25;;;;;;;7.90;100.00;97467.88;5050497;28;20029;-81
2023/11/25 04:22:46;;;;;;;74.70;35.58;;;;;;;7.78;100.00;97467.34;5051943;28;20028;-80
2023/11/25 04:25:12;;;;;;;69.90;32.80;;;;;;;7.73;100.00;97432.88;5051108;28;20090;-81
2023/11/25 04:27:42;;;;;;;50.22;28.38;;;;;;;7.54;100.00;97424.59;5050237;28;20025;-81
2023/11/25 04:30:10;;;;;;;47.70;25.08;;;;;;;7.80;100.00;97436.03;5050137;28;20044;-82
2023/11/25 04:32:36;;;;;;;54.77;30.73;;;;;;;7.29;100.00;97430.66;5057468;28;20031;-81
2023/11/25 04:35:04;;;;;;;48.30;26.23;;;;;;;7.20;100.00;97399.38;5055584;28;20025;-81
2023/11/25 04:37:30;;;;;;;48.65;26.30;;;;;;;7.69;100.00;97447.72;5050297;28;20037;-81
2023/11/25 04:39:56;;;;;;;46.15;25.80;;;;;;;7.43;100.00;97397.28;5049713;28;20112;-82
2023/11/25 04:42:21;;;;;;;43.60;24.25;;;;;;;7.67;100.00;97413.50;5050220;28;20115;-81
2023/11/25 04:44:47;;;;;;;45.70;24.85;;;;;;;7.35;100.00;97395.94;5068428;28;20071;-81
2023/11/25 04:47:12;;;;;;;42.72;24.55;;;;;;;7.46;100.00;97399.44;5069555;28;20115;-81
2023/11/25 04:49:39;;;;;;;47.58;28.98;;;;;;;7.43;100.00;97423.81;5071674;28;20103;-81
2023/11/25 04:52:05;;;;;;;47.25;27.33;;;;;;;7.55;100.00;97427.00;5060839;28;20537;-82
2023/11/25 04:54:32;;;;;;;68.20;43.70;;;;;;;7.62;100.00;97411.63;5049918;28;20029;-84
2023/11/25 04:56:58;;;;;;;49.45;28.17;;;;;;;7.89;100.00;97445.06;5050508;28;20083;-81
2023/11/25 04:59:24;;;;;;;51.88;28.10;;;;;;;7.60;100.00;97397.84;5049368;28;20064;-81
2023/11/25 05:01:49;;;;;;;51.58;26.77;;;;;;;7.67;100.00;97431.25;5050760;28;20060;-82
2023/11/25 05:04:15;;;;;;;49.03;25.48;;;;;;;7.21;100.00;97400.97;5053745;28;20095;-81
2023/11/25 05:06:41;;;;;;;43.00;24.05;;;;;;;7.54;100.00;97404.19;5049427;28;20032;-81
2023/11/25 05:09:06;;;;;;;46.92;26.20;;;;;;;7.41;100.00;97372.88;5049050;28;20069;-81
2023/11/25 05:11:32;;;;;;;46.92;24.92;;;;;;;7.83;100.00;97401.03;5052281;28;20502;-81
2023/11/25 05:13:58;;;;;;;48.30;26.35;;;;;;;7.77;100.00;97389.59;5058936;28;20034;-81
2023/11/25 05:16:24;;;;;;;45.92;24.77;;;;;;;8.02;100.00;97399.41;5050396;28;20033;-80
2023/11/25 05:18:49;;;;;;;49.42;27.70;;;;;;;7.88;100.00;97422.22;5048682;28;20033;-82
2023/11/25 05:21:15;;;;;;;47.97;27.38;;;;;;;7.55;100.00;97379.25;5049217;28;20029;-83
2023/11/25 05:23:40;;;;;;;42.72;24.75;;;;;;;7.73;100.00;97380.59;5054099;28;20037;-82
2023/11/25 05:26:05;;;;;;;42.85;24.42;;;;;;;7.83;100.00;97390.41;5049173;28;20033;-81
2023/11/25 05:28:31;;;;;;;53.00;26.88;;;;;;;7.44;100.00;97393.59;5048955;28;20040;-81
2023/11/25 05:30:57;;;;;;;44.03;25.63;;;;;;;7.65;100.00;97399.69;5048751;28;20464;-82
2023/11/25 05:33:23;;;;;;;46.55;27.33;;;;;;;7.51;100.00;97374.75;5051758;28;20035;-81
2023/11/25 05:35:48;;;;;;;44.35;25.08;;;;;;;7.35;100.00;97382.69;5054659;28;20028;-82
2023/11/25 05:38:15;;;;;;;47.45;25.27;;;;;;;7.58;100.00;97364.66;5050158;28;20037;-85
2023/11/25 05:40:41;;;;;;;39.38;23.95;;;;;;;7.21;100.00;97332.06;5050142;28;20021;-81
2023/11/25 05:43:06;;;;;;;87.20;51.38;;;;;;;7.76;100.00;97356.16;5059335;28;20418;-81
2023/11/25 05:45:32;;;;;;;86.00;51.08;;;;;;;7.68;100.00;97356.72;5056201;28;20102;-82
2023/11/25 05:47:58;;;;;;;62.72;37.78;;;;;;;7.93;100.00;97366.53;5048599;28;20029;-80
2023/11/25 05:50:24;;;;;;;38.63;24.02;;;;;;;7.97;100.00;97364.13;5048791;28;20137;-80
2023/11/25 05:52:50;;;;;;;52.67;25.73;;;;;;;7.81;100.00;97345.56;5050579;28;20551;-81
2023/11/25 05:55:16;;;;;;;58.97;32.72;;;;;;;7.92;100.00;97377.41;5053345;28;20033;-80
2023/11/25 05:57:44;;;;;;;54.70;32.40;;;;;;;7.78;100.00;97367.31;5048270;28;20029;-81
2023/11/25 06:00:12;;;;;;;54.15;31.27;;;;;;;7.38;100.00;97360.19;5048542;28;20039;-81
2023/11/25 06:02:40;;;;;;;51.88;30.63;;;;;;;7.38;100.00;97346.91;5048578;28;20024;-82
2023/11/25 06:05:06;;;;;;;51.10;30.30;;;;;;;7.60;100.00;97352.75;5055077;28;20098;-81
2023/11/25 06:07:32;;;;;;;49.72;27.00;;;;;;;7.63;100.00;97336.28;5048528;28;20025;-82
2023/11/25 06:09:57;;;;;;;51.17;27.75;;;;;;;7.57;100.00;97349.84;5049746;28;20044;-81
2023/11/25 06:12:23;;;;;;;46.28;27.85;;;;;;;7.29;100.00;97369.69;5048490;28;20076;-81
2023/11/25 06:14:52;;;;;;;49.60;28.25;;;;;;;7.80;100.00;97370.50;5049740;28;20098;-81
2023/11/25 06:17:20;;;;;;;297.73;232.10;;;;;;;7.62;100.00;97345.31;5049400;28;20132;-81
2023/11/25 06:19:48;;;;;;;58.90;35.72;;;;;;;7.63;100.00;97354.88;5048194;28;20383;-82
2023/11/25 06:22:13;;;;;;;52.38;29.20;;;;;;;7.72;100.00;97362.28;5048736;28;20040;-81
2023/11/25 06:24:40;;;;;;;44.25;25.70;;;;;;;7.93;100.00;97352.47;5057251;28;20094;-81
2023/11/25 06:27:06;;;;;;;48.50;25.70;;;;;;;8.19;100.00;97363.81;5048326;28;20029;-81
2023/11/25 06:29:31;;;;;;;46.38;26.80;;;;;;;8.02;100.00;97362.25;5049341;28;20028;-80
2023/11/25 06:31:57;;;;;;;45.90;27.10;;;;;;;7.86;100.00;97363.34;5048075;28;20443;-80
2023/11/25 06:34:22;;;;;;;40.95;25.08;;;;;;;8.08;100.00;97367.56;5051036;28;20035;-81
2023/11/25 06:36:48;;;;;;;43.63;24.70;;;;;;;8.09;100.00;97366.47;5047863;28;20059;-81
2023/11/25 06:39:14;;;;;;;41.53;25.02;;;;;;;8.04;100.00;97370.72;5048347;28;20029;-82
2023/11/25 06:41:48;;;;;;;44.05;25.52;;;;;;;8.10;100.00;97370.75;5048933;28;20087;-82
2023/11/25 06:44:17;;;;;;;46.42;27.00;;;;;;;8.18;100.00;97356.91;5049143;28;20513;-82
2023/11/25 06:46:43;;;;;;;;;;;;;;;8.05;100.00;97387.47;5053422;28;20029;-81
2023/11/25 06:49:09;;;;;;;49.88;26.17;;;;;;;8.09;100.00;97361.16;5042373;28;19913;-80
2023/11/25 06:51:34;;;;;;;47.15;27.27;;;;;;;7.97;100.00;97354.31;5046900;28;20098;-81
2023/11/25 06:54:00;;;;;;;58.22;29.75;;;;;;;8.11;100.00;97353.72;5050298;28;20029;-81
2023/11/25 06:56:26;;;;;;;56.03;28.60;;;;;;;7.88;100.00;97347.16;5050804;28;20029;-81
2023/11/25 06:58:52;;;;;;;57.38;28.17;;;;;;;8.19;100.00;97377.06;5048683;28;20092;-81
2023/11/25 07:01:21;;;;;;;51.33;26.08;;;;;;;7.99;100.00;97378.72;5047257;28;20082;-80
2023/11/25 07:03:48;;;;;;;57.78;28.98;;;;;;;8.13;100.00;97399.38;5053077;28;20946;-81
2023/11/25 07:06:17;;;;;;;57.78;27.65;;;;;;;8.27;100.00;97395.09;5051204;28;20124;-80
2023/11/25 07:08:43;;;;;;;53.83;28.27;;;;;;;8.37;100.00;97389.78;5047335;28;20032;-82
2023/11/25 07:11:13;;;;;;;57.10;27.88;;;;;;;8.15;100.00;97374.19;5047476;28;20402;-83
2023/11/25 07:13:42;;;;;;;58.38;32.65;;;;;;;8.37;100.00;97400.41;5049984;28;20120;-80
2023/11/25 07:16:07;;;;;;;58.95;30.70;;;;;;;8.62;100.00;97396.09;5051214;28;20090;-81
2023/11/25 07:18:34;;;;;;;89.65;39.30;;;;;;;8.84;100.00;97420.44;5051138;28;20021;-82
2023/11/25 07:21:00;;;;;;;51.50;29.48;;;;;;;8.67;100.00;97422.66;5050921;28;20079;-81
2023/11/25 07:23:26;;;;;;;58.22;30.17;;;;;;;8.57;100.00;97398.78;5051446;28;20048;-83
2023/11/25 07:25:52;;;;;;;50.58;27.02;;;;;;;8.70;100.00;97386.78;5053116;28;20044;-81
2023/11/25 07:28:18;;;;;;;50.10;29.88;;;;;;;8.63;100.00;97403.81;5050854;28;20025;-82
2023/11/25 07:30:44;;;;;;;48.28;26.85;;;;;;;8.72;100.00;97405.91;5052030;28;20032;-82
2023/11/25 07:33:10;;;;;;;50.08;27.67;;;;;;;8.89;100.00;97392.25;5050965;28;20056;-84
2023/11/25 07:35:36;;;;;;;63.90;32.97;;;;;;;9.00;100.00;97375.22;5054526;28;20053;-81
2023/11/25 07:38:05;;;;;;;46.65;25.75;;;;;;;8.88;100.00;97399.44;5052430;28;20032;-82
2023/11/25 07:40:30;;;;;;;50.88;26.63;;;;;;;8.84;100.00;97399.19;5050609;28;20481;-81
2023/11/25 07:42:55;;;;;;;50.40;27.05;;;;;;;9.21;100.00;97397.97;5051031;28;20029;-84
2023/11/25 07:45:21;;;;;;;47.67;26.02;;;;;;;9.36;100.00;97382.97;5062325;28;20093;-81
2023/11/25 07:47:47;;;;;;;44.15;24.70;;;;;;;9.09;100.00;97388.72;5071942;28;20489;-82
2023/11/25 07:50:14;;;;;;;47.40;26.27;;;;;;;8.95;100.00;97391.16;5071731;28;20076;-81
2023/11/25 07:52:39;;;;;;;42.67;25.45;;;;;;;9.36;100.00;97388.31;5070546;28;20036;-81
2023/11/25 07:55:06;;;;;;;47.55;25.40;;;;;;;9.29;100.00;97377.94;5059540;28;20037;-81
2023/11/25 07:57:32;;;;;;;44.90;25.20;;;;;;;9.14;100.00;97357.56;5056907;28;20710;-81
2023/11/25 07:59:58;;;;;;;44.00;26.10;;;;;;;8.93;100.00;97322.38;5050226;28;20124;-79
2023/11/25 08:02:24;;;;;;;47.28;27.38;;;;;;;8.95;100.00;97341.47;5051484;28;20025;-81
2023/11/25 08:04:50;;;;;;;43.78;25.95;;;;;;;9.08;100.00;97369.31;5051554;28;20036;-82
2023/11/25 08:07:16;;;;;;;43.97;25.30;;;;;;;9.11;100.00;97371.41;5050305;28;20029;-81
2023/11/25 08:09:42;;;;;;;45.60;27.58;;;;;;;9.32;100.00;97360.66;5049935;28;20402;-80
2023/11/25 08:12:08;;;;;;;48.22;28.48;;;;;;;9.18;100.00;97369.25;5050056;28;20029;-82
2023/11/25 08:14:34;;;;;;;46.95;26.95;;;;;;;9.23;100.00;97390.50;5049987;28;20120;-82
2023/11/25 08:16:59;;;;;;;47.90;29.05;;;;;;;9.33;100.00;97383.53;5052500;28;20029;-82
2023/11/25 08:19:25;;;;;;;50.72;29.63;;;;;;;9.19;100.00;97378.84;5051425;28;20029;-82
2023/11/25 08:21:50;;;;;;;54.10;31.63;;;;;;;9.07;100.00;97378.34;5050245;28;20631;-81
2023/11/25 08:24:19;;;;;;;53.97;29.67;;;;;;;9.29;100.00;97382.47;5051329;28;20082;-81
2023/11/25 08:26:46;;;;;;;54.35;31.15;;;;;;;9.46;100.00;97396.22;5052932;28;20120;-84
2023/11/25 08:29:11;;;;;;;52.53;30.33;;;;;;;9.39;100.00;97401.03;5050064;28;20028;-81
2023/11/25 08:31:38;;;;;;;57.40;35.92;;;;;;;9.30;100.00;97394.72;5049821;28;20383;-81
2023/11/25 08:34:06;;;;;;;59.28;34.03;;;;;;;9.41;100.00;97402.34;5049487;28;20037;-81
2023/11/25 08:36:31;;;;;;;;;;;;;;;9.43;100.00;97421.47;5062541;28;20023;-81
2023/11/25 08:39:01;;;;;;;54.63;30.23;;;;;;;9.51;100.00;97406.81;5049648;28;19908;-81
2023/11/25 08:41:27;;;;;;;56.38;31.95;;;;;;;9.67;100.00;97410.16;5050702;28;20052;-82
2023/11/25 08:43:53;;;;;;;66.55;36.85;;;;;;;9.54;100.00;97400.94;5049535;28;20029;-82
2023/11/25 08:46:19;;;;;;;52.28;30.08;;;;;;;9.76;100.00;97418.31;5064977;28;20090;-80
2023/11/25 08:48:46;;;;;;;53.75;29.65;;;;;;;9.75;100.00;97422.06;5051352;28;20111;-81
2023/11/25 08:51:11;;;;;;;56.40;34.88;;;;;;;9.56;100.00;97388.16;5050534;28;20048;-80
2023/11/25 08:53:44;;;;;;;51.40;31.58;;;;;;;9.80;100.00;97422.03;5049629;28;20021;-81
2023/11/25 08:56:10;;;;;;;52.83;28.85;;;;;;;9.69;100.00;97409.88;5061238;28;21252;-81
2023/11/25 08:58:35;;;;;;;49.20;28.38;;;;;;;11.83;100.00;97413.78;5049057;28;20802;-81
2023/11/25 09:01:02;;;;;;;47.17;27.65;;;;;;;11.08;100.00;97426.06;5049569;28;20037;-81
2023/11/25 09:03:27;;;;;;;51.50;28.40;;;;;;;10.99;100.00;97401.91;5048998;28;20179;-81
2023/11/25 09:05:53;;;;;;;46.13;26.23;;;;;;;11.67;100.00;97410.56;5049196;28;20116;-81
2023/11/25 09:08:18;;;;;;;52.17;27.40;;;;;;;11.33;100.00;97432.13;5049558;28;20033;-81
2023/11/25 09:10:44;;;;;;;46.83;25.67;;;;;;;10.93;100.00;97402.25;5050723;28;20413;-80
2023/11/25 09:13:10;;;;;;;55.55;28.48;;;;;;;11.63;100.00;97421.00;5049024;28;20032;-81
2023/11/25 09:15:36;;;;;;;49.92;26.60;;;;;;;11.12;100.00;97427.06;5049292;28;20032;-82
2023/11/25 09:18:02;;;;;;;52.40;29.10;;;;;;;10.67;100.00;97417.78;5052443;28;20029;-82
2023/11/25 09:20:28;;;;;;;57.65;29.38;;;;;;;10.62;100.00;97439.94;5050616;28;20043;-82
2023/11/25 09:22:55;;;;;;;54.70;28.65;;;;;;;10.90;100.00;97419.63;5048918;28;20032;-82
2023/11/25 09:25:21;;;;;;;52.38;27.90;;;;;;;10.96;100.00;97434.47;5048813;28;20040;-81
2023/11/25 09:27:46;;;;;;;58.10;30.70;;;;;;;10.62;100.00;97439.94;5053060;28;20029;-83
2023/11/25 09:30:13;;;;;;;59.63;30.58;;;;;;;10.73;100.00;97420.09;5048699;28;20492;-83
2023/11/25 09:32:44;;;;;;;55.28;31.67;;;;;;;10.88;100.00;97439.66;5048577;28;20017;-81
2023/11/25 09:35:11;;;;;;;51.85;27.45;;;;;;;10.81;100.00;97427.47;5048708;28;20060;-81
2023/11/25 09:37:40;;;;;;;48.65;25.92;;;;;;;10.75;100.00;97423.25;5057863;28;20401;-81
2023/11/25 09:40:13;;;;;;;50.22;26.60;;;;;;;10.80;100.00;97423.19;5048513;28;20064;-81
2023/11/25 09:42:39;;;;;;;44.67;25.65;;;;;;;10.77;100.00;97394.44;5048675;28;20474;-80
2023/11/25 09:45:05;;;;;;;42.28;25.02;;;;;;;10.61;100.00;97427.69;5051078;28;20047;-82
2023/11/25 09:47:30;;;;;;;36.88;22.75;;;;;;;10.78;100.00;97401.34;5058859;28;20035;-82
2023/11/25 09:49:56;;;;;;;44.30;26.92;;;;;;;10.55;100.00;97408.28;5048362;28;20033;-82
2023/11/25 09:52:27;;;;;;;41.95;25.98;;;;;;;10.84;100.00;97429.53;5048216;28;20056;-82
2023/11/25 09:54:56;;;;;;;59.72;36.78;;;;;;;10.89;100.00;97422.56;5048489;28;20025;-83
2023/11/25 09:57:25;;;;;;;38.08;30.88;;;;;;;10.33;100.00;97427.44;5049015;28;20127;-81
2023/11/25 09:59:50;;;;;;;27.75;21.75;;;;;;;10.48;100.00;97415.03;5048824;28;20029;-79
2023/11/25 10:02:16;;;;;;;25.45;18.27;;;;;;;10.27;100.00;97461.28;5047742;28;20036;-83
2023/11/25 10:04:44;;;;;;;20.83;13.90;;;;;;;9.84;100.00;97444.34;5048085;28;20029;-83
2023/11/25 10:07:09;;;;;;;12.32;6.50;;;;;;;9.32;100.00;97430.59;5052605;28;20128;-81
2023/11/25 10:09:41;;;;;;;16.00;8.85;;;;;;;9.22;100.00;97431.44;5053256;28;20123;-81
2023/11/25 10:12:09;;;;;;;27.50;11.65;;;;;;;8.92;100.00;97405.03;5047857;28;20029;-81
2023/11/25 10:14:40;;;;;;;30.15;9.23;;;;;;;8.75;100.00;97411.47;5047297;28;20029;-82
2023/11/25 10:17:17;;;;;;;24.88;9.88;;;;;;;8.65;100.00;97432.75;5057746;28;20089;-82
2023/11/25 10:19:42;;;;;;;38.10;10.38;;;;;;;8.61;100.00;97413.91;5049262;28;20032;-80
2023/11/25 10:22:08;;;;;;;29.58;8.73;;;;;;;8.74;100.00;97428.47;5048807;28;20025;-81
2023/11/25 10:24:34;;;;;;;42.42;11.27;;;;;;;8.76;100.00;97430.84;5049149;28;20066;-80
2023/11/25 10:27:00;;;;;;;50.03;13.07;;;;;;;8.72;100.00;97419.97;5048102;28;20044;-80
2023/11/25 10:29:27;;;;;;;33.75;10.98;;;;;;;8.63;100.00;97408.31;5047737;28;20064;-84
2023/11/25 10:31:56;;;;;;;48.72;14.10;;;;;;;8.77;100.00;97414.66;5047617;28;20067;-81
2023/11/25 10:34:24;;;;;;;42.88;13.23;;;;;;;8.98;100.00;97438.47;5048880;28;20033;-81
2023/11/25 10:36:50;;;;;;;32.55;14.52;;;;;;;8.52;100.00;97418.19;5049368;28;20512;-81
2023/11/25 10:39:17;;;;;;;43.50;16.55;;;;;;;8.44;100.00;97418.75;5057114;28;20106;-80
2023/11/25 10:41:49;;;;;;;13.98;7.15;;;;;;;8.33;100.00;97425.91;5048863;28;20509;-80
2023/11/25 10:44:14;;;;;;;11.48;7.82;;;;;;;8.42;100.00;97434.94;5048736;28;20714;-80
2023/11/25 10:46:41;;;;;;;7.55;3.75;;;;;;;8.06;100.00;97389.06;5048872;28;20068;-80
2023/11/25 10:49:08;;;;;;;9.05;4.60;;;;;;;8.23;100.00;97432.03;5051792;28;20410;-80
2023/11/25 10:51:37;;;;;;;6.38;3.20;;;;;;;8.03;100.00;97410.84;5050676;28;20502;-79
2023/11/25 10:54:03;;;;;;;7.82;2.42;;;;;;;8.05;100.00;97404.19;5053116;28;20025;-81
2023/11/25 10:56:30;;;;;;;5.72;2.75;;;;;;;7.94;100.00;97412.41;5058189;28;20069;-80
2023/11/25 10:58:57;;;;;;;6.20;3.60;;;;;;;7.82;100.00;97407.38;5059951;28;20044;-80
2023/11/25 11:01:25;;;;;;;6.13;2.28;;;;;;;7.77;100.00;97402.09;5052864;28;20521;-80
2023/11/25 11:04:05;;;;;;;4.30;2.00;;;;;;;7.65;100.00;97397.84;5051959;28;20032;-82
2023/11/25 11:06:43;;;;;;;6.25;1.95;;;;;;;7.73;100.00;97398.38;5057684;28;20036;-81
2023/11/25 11:09:09;;;;;;;3.92;1.88;;;;;;;7.91;100.00;97403.13;5052419;28;20583;-82
2023/11/25 11:11:49;;;;;;;3.67;1.40;;;;;;;7.60;100.00;97386.41;5051412;28;20037;-80
2023/11/25 11:14:16;;;;;;;4.18;1.60;;;;;;;7.54;100.00;97396.25;5051741;28;20028;-81